createdAt,value
2019-04-28T00:02:22.431Z,68.79
2019-04-28T00:07:23.566Z,68.64
2019-04-28T00:12:24.976Z,68.00
2019-04-28T00:17:26.381Z,65.52
2019-04-28T00:22:28.490Z,64.81
2019-04-28T00:27:31.494Z,65.47
2019-04-28T00:32:32.547Z,64.43
2019-04-28T00:37:32.976Z,63.71
2019-04-28T00:42:35.048Z,62.47
2019-04-28T00:47:37.281Z,62.38
2019-04-28T00:52:38.641Z,61.64
2019-04-28T00:57:40.940Z,61.98
2019-04-28T01:02:41.506Z,61.47
2019-04-28T01:07:42.880Z,61.22
2019-04-28T01:12:46.599Z,61.02
2019-04-28T01:17:45.724Z,60.86
2019-04-28T01:22:49.599Z,60.81
2019-04-28T01:27:50.738Z,60.79
2019-04-28T01:32:52.662Z,60.98
2019-04-28T01:37:55.185Z,61.29
2019-04-28T01:42:57.318Z,62.46
2019-04-28T01:48:00.517Z,62.79
2019-04-28T01:53:00.980Z,62.20
2019-04-28T01:58:02.336Z,62.01
2019-04-28T02:03:03.760Z,62.46
2019-04-28T02:08:05.194Z,62.00
2019-04-28T02:13:06.554Z,61.62
2019-04-28T02:18:09.900Z,61.92
2019-04-28T02:23:11.057Z,61.28
2019-04-28T02:28:12.425Z,61.88
2019-04-28T02:33:13.789Z,62.34
2019-04-28T02:38:15.155Z,61.88
2019-04-28T02:43:16.515Z,61.95
2019-04-28T02:48:17.879Z,61.59
2019-04-28T02:53:21.290Z,61.70
2019-04-28T02:58:22.696Z,61.63
2019-04-28T03:03:23.836Z,60.05
2019-04-28T03:08:25.212Z,60.06
2019-04-28T03:13:26.648Z,60.11
2019-04-28T03:18:28.047Z,60.40
2019-04-28T03:23:31.104Z,58.98
2019-04-28T03:28:43.207Z,58.36
2019-04-28T03:33:48.908Z,58.39
2019-04-28T03:38:46.737Z,58.83
2019-04-28T03:43:51.107Z,57.98
2019-04-28T03:48:50.910Z,58.60
2019-04-28T03:53:51.127Z,57.79
2019-04-28T03:58:52.456Z,58.51
2019-04-28T04:03:53.836Z,57.91
2019-04-28T04:08:55.204Z,58.17
2019-04-28T04:13:56.614Z,58.08
2019-04-28T04:19:00.492Z,58.20
2019-04-28T04:24:01.015Z,58.91
2019-04-28T04:29:01.192Z,58.71
2019-04-28T04:34:03.653Z,58.36
2019-04-28T04:39:04.850Z,58.40
2019-04-28T04:44:06.269Z,58.72
2019-04-28T04:49:07.638Z,58.61
2019-04-28T04:54:10.818Z,58.73
2019-04-28T04:59:10.486Z,58.60
2019-04-28T05:04:12.739Z,58.68
2019-04-28T05:09:14.039Z,58.69
2019-04-28T05:14:15.606Z,58.45
2019-04-28T05:19:17.061Z,58.88
2019-04-28T05:24:20.352Z,57.72
2019-04-28T05:29:26.893Z,57.82
2019-04-28T05:34:31.995Z,57.23
2019-04-28T05:39:38.607Z,56.83
2019-04-28T05:44:37.900Z,56.47
2019-04-28T05:49:51.859Z,55.13
2019-04-28T05:54:54.564Z,55.79
2019-04-28T06:00:03.379Z,54.07
2019-04-28T06:05:03.858Z,55.07
2019-04-28T06:10:05.315Z,53.74
2019-04-28T06:15:06.785Z,52.24
2019-04-28T06:20:11.541Z,52.74
2019-04-28T06:25:18.267Z,52.46
2019-04-28T06:30:26.079Z,52.47
2019-04-28T06:35:28.266Z,52.37
2019-04-28T06:40:30.877Z,51.46
2019-04-28T06:45:32.252Z,50.78
2019-04-28T06:50:33.701Z,51.75
2019-04-28T06:55:35.962Z,51.63
2019-04-28T07:00:37.408Z,52.36
2019-04-28T07:05:38.828Z,53.17
2019-04-28T07:10:54.613Z,52.59
2019-04-28T07:16:10.507Z,53.08
2019-04-28T07:21:14.750Z,53.44
2019-04-28T07:26:18.120Z,52.23
2019-04-28T07:31:19.494Z,52.57
2019-04-28T07:36:28.703Z,54.27
2019-04-28T07:41:32.738Z,51.59
2019-04-28T07:46:34.160Z,51.35
2019-04-28T07:51:41.880Z,50.61
2019-04-28T07:56:43.243Z,51.24
2019-04-28T08:01:44.553Z,50.98
2019-04-28T08:06:45.880Z,51.87
2019-04-28T08:11:48.136Z,52.54
2019-04-28T08:16:49.493Z,50.51
2019-04-28T08:21:50.809Z,50.12
2019-04-28T08:26:52.877Z,50.72
2019-04-28T08:32:09.140Z,49.10
2019-04-28T08:37:10.449Z,49.85
2019-04-28T08:42:11.796Z,48.42
2019-04-28T08:47:19.160Z,48.06
2019-04-28T08:52:20.492Z,48.04
2019-04-28T08:57:24.603Z,46.22
2019-04-28T09:02:25.954Z,46.37
2019-04-28T09:07:27.249Z,47.95
2019-04-28T09:12:28.543Z,47.28
2019-04-28T09:17:29.898Z,46.34
2019-04-28T09:22:31.222Z,44.22
2019-04-28T09:27:32.553Z,47.61
2019-04-28T09:32:33.893Z,46.22
2019-04-28T09:37:35.296Z,45.05
2019-04-28T09:42:37.151Z,45.88
2019-04-28T09:47:38.453Z,46.31
2019-04-28T09:52:39.837Z,43.60
2019-04-28T09:57:49.880Z,43.92
2019-04-28T10:02:51.257Z,42.58
2019-04-28T10:07:52.741Z,44.31
2019-04-28T10:12:54.265Z,43.76
2019-04-28T10:17:55.602Z,43.67
2019-04-28T10:22:57.018Z,42.64
2019-04-28T10:27:58.521Z,39.95
2019-04-28T10:33:00.662Z,41.55
2019-04-28T10:38:02.097Z,41.24
2019-04-28T10:43:03.829Z,41.01
2019-04-28T10:48:06.052Z,39.59
2019-04-28T10:53:07.721Z,40.55
2019-04-28T10:58:09.101Z,41.92
2019-04-28T11:03:10.498Z,43.17
2019-04-28T11:08:25.633Z,40.48
2019-04-28T11:13:26.974Z,42.87
2019-04-28T11:18:28.323Z,41.99
2019-04-28T11:23:29.656Z,42.23
2019-04-28T11:28:30.969Z,41.64
2019-04-28T11:33:38.864Z,42.41
2019-04-28T11:38:40.275Z,41.83
2019-04-28T11:43:41.620Z,41.29
2019-04-28T11:48:43.657Z,40.96
2019-04-28T11:53:45.810Z,38.53
2019-04-28T11:58:47.300Z,40.50
2019-04-28T12:03:48.864Z,39.92
2019-04-28T12:08:50.229Z,39.96
2019-04-28T12:13:58.453Z,39.16
2019-04-28T12:19:02.865Z,38.78
2019-04-28T12:24:04.957Z,38.82
2019-04-28T12:29:06.375Z,40.29
2019-04-28T12:34:08.302Z,39.35
2019-04-28T12:39:09.638Z,39.44
2019-04-28T12:44:11.743Z,39.79
2019-04-28T12:49:14.118Z,41.08
2019-04-28T12:54:16.215Z,40.96
2019-04-28T12:59:17.557Z,39.27
2019-04-28T13:04:18.872Z,39.04
2019-04-28T13:09:20.208Z,37.88
2019-04-28T13:14:21.513Z,40.46
2019-04-28T13:19:22.855Z,38.65
2019-04-28T13:24:24.184Z,38.26
2019-04-28T13:29:25.515Z,39.76
2019-04-28T13:34:26.852Z,38.19
2019-04-28T13:39:28.209Z,38.35
2019-04-28T13:44:35.768Z,40.07
2019-04-28T13:49:43.325Z,39.62
2019-04-28T13:54:44.654Z,40.85
2019-04-28T13:59:47.201Z,41.86
2019-04-28T14:10:21.129Z,42.22
2019-04-28T14:15:26.537Z,41.51
2019-04-28T14:20:27.917Z,41.54
2019-04-28T14:25:29.243Z,40.14
2019-04-28T14:30:30.596Z,38.78
2019-04-28T14:35:31.977Z,41.19
2019-04-28T14:40:33.312Z,44.87
2019-04-28T14:45:34.709Z,42.83
2019-04-28T14:50:36.081Z,41.93
2019-04-28T14:55:37.702Z,41.73
2019-04-28T15:00:40.806Z,40.13
2019-04-28T15:05:47.895Z,40.16
2019-04-28T15:10:51.836Z,40.82
2019-04-28T15:15:53.390Z,41.02
2019-04-28T15:20:56.648Z,41.68
2019-04-28T15:25:58.607Z,41.32
2019-04-28T15:31:00.384Z,39.45
2019-04-28T15:36:02.383Z,39.17
2019-04-28T15:41:04.204Z,38.11
2019-04-28T15:46:05.761Z,38.99
2019-04-28T15:51:07.596Z,38.30
2019-04-28T15:56:11.248Z,38.90
2019-04-28T16:01:14.151Z,38.13
2019-04-28T16:06:16.749Z,38.43
2019-04-28T16:11:18.254Z,38.64
2019-04-28T16:16:19.765Z,37.54
2019-04-28T16:21:24.702Z,37.45
2019-04-28T16:26:26.655Z,36.71
2019-04-28T16:31:28.161Z,37.67
2019-04-28T16:36:29.609Z,38.48
2019-04-28T16:41:32.328Z,41.66
2019-04-28T16:46:34.362Z,41.85
2019-04-28T16:51:35.844Z,47.14
2019-04-28T16:56:39.294Z,45.54
2019-04-28T17:01:43.572Z,45.68
2019-04-28T17:06:45.768Z,44.74
2019-04-28T17:11:48.225Z,45.02
2019-04-28T17:16:49.381Z,45.14
2019-04-28T17:21:51.494Z,46.01
2019-04-28T17:27:03.625Z,46.79
2019-04-28T17:32:05.023Z,47.46
2019-04-28T17:37:06.487Z,45.30
2019-04-28T17:42:07.871Z,45.49
2019-04-28T17:47:10.281Z,46.29
2019-04-28T17:52:11.974Z,46.31
2019-04-28T17:57:13.378Z,47.24
2019-04-28T18:02:20.783Z,47.98
2019-04-28T18:07:23.999Z,48.25
2019-04-28T18:12:25.454Z,49.32
2019-04-28T18:17:32.992Z,48.34
2019-04-28T18:22:34.420Z,49.50
2019-04-28T18:27:36.391Z,48.96
2019-04-28T18:32:38.677Z,49.25
2019-04-28T18:37:43.068Z,49.71
2019-04-28T18:42:59.392Z,49.87
2019-04-28T18:48:00.920Z,49.50
2019-04-28T18:53:02.382Z,49.38
2019-04-28T18:58:03.836Z,49.69
2019-04-28T19:03:05.401Z,49.39
2019-04-28T19:08:08.970Z,50.03
2019-04-28T19:13:17.454Z,49.77
2019-04-28T19:18:19.872Z,49.36
2019-04-28T19:23:21.322Z,49.07
2019-04-28T19:28:22.693Z,49.85
2019-04-28T19:33:24.090Z,49.78
2019-04-28T19:38:25.487Z,49.88
2019-04-28T19:43:27.806Z,49.88
2019-04-28T19:48:29.267Z,49.67
2019-04-28T19:53:31.950Z,51.18
2019-04-28T19:58:38.048Z,50.83
2019-04-28T20:03:39.394Z,50.97
2019-04-28T20:08:40.732Z,51.48
2019-04-28T20:13:42.797Z,51.49
2019-04-28T20:18:44.179Z,52.32
2019-04-28T20:23:46.292Z,53.52
2019-04-28T20:28:47.611Z,52.83
2019-04-28T20:33:49.020Z,53.41
2019-04-28T20:38:51.349Z,52.75
2019-04-28T20:43:52.761Z,52.97
2019-04-28T20:48:54.924Z,53.09
2019-04-28T20:53:57.162Z,52.70
2019-04-28T20:58:59.289Z,52.44
2019-04-28T21:04:01.375Z,52.53
2019-04-28T21:09:02.746Z,52.41
2019-04-28T21:14:04.072Z,52.32
2019-04-28T21:19:05.408Z,52.05
2019-04-28T21:24:06.734Z,52.49
2019-04-28T21:29:08.802Z,52.25
2019-04-28T21:34:10.103Z,52.34
2019-04-28T21:49:46.979Z,53.20
2019-04-28T21:54:48.964Z,52.57
2019-04-28T21:59:50.364Z,52.61
2019-04-28T22:04:51.705Z,52.73
2019-04-28T22:09:53.095Z,52.93
2019-04-28T22:14:54.441Z,52.84
2019-04-28T22:19:55.873Z,52.99
2019-04-28T22:24:57.244Z,53.26
2019-04-28T22:29:58.576Z,53.75
2019-04-28T22:35:00.710Z,53.54
2019-04-28T22:40:02.045Z,53.58
2019-04-28T22:45:04.315Z,54.14
2019-04-28T22:50:12.641Z,55.10
2019-04-28T22:55:14.854Z,55.14
2019-04-28T23:00:22.052Z,55.64
2019-04-28T23:05:28.385Z,56.02
2019-04-28T23:10:29.708Z,55.93
2019-04-28T23:15:31.028Z,55.12
2019-04-28T23:20:32.469Z,54.73
2019-04-28T23:25:33.817Z,55.48
2019-04-28T23:30:42.796Z,55.42
2019-04-28T23:35:44.148Z,55.11
2019-04-28T23:40:45.531Z,55.41
2019-04-28T23:45:47.675Z,55.94
2019-04-28T23:50:55.172Z,57.38
2019-04-28T23:55:56.619Z,57.29
